sensor_id;sensor_type;location;lat;lon;timestamp;P1;durP1;ratioP1;P2;durP2;ratioP2
43690;SDS011;29293;52.190;21.226;2023-12-20T00:01:25;25.30;;;16.30;;
43690;SDS011;29293;52.190;21.226;2023-12-20T00:16:32;24.80;;;15.20;;
43690;SDS011;29293;52.190;21.226;2023-12-20T00:31:39;23.80;;;14.60;;
43690;SDS011;29293;52.190;21.226;2023-12-20T00:46:46;21.20;;;13.30;;
43690;SDS011;29293;52.190;21.226;2023-12-20T01:01:53;19.20;;;12.50;;
43690;SDS011;29293;52.190;21.226;2023-12-20T01:17:01;18.20;;;13.10;;
43690;SDS011;29293;52.190;21.226;2023-12-20T01:32:08;16.10;;;12.00;;
43690;SDS011;29293;52.190;21.226;2023-12-20T01:47:15;15.20;;;10.30;;
43690;SDS011;29293;52.190;21.226;2023-12-20T02:02:21;16.00;;;10.30;;
43690;SDS011;29293;52.190;21.226;2023-12-20T02:17:30;13.60;;;9.40;;
43690;SDS011;29293;52.190;21.226;2023-12-20T02:47:44;14.80;;;9.30;;
43690;SDS011;29293;52.190;21.226;2023-12-20T03:02:50;13.50;;;8.70;;
43690;SDS011;29293;52.190;21.226;2023-12-20T03:17:57;12.40;;;7.60;;
43690;SDS011;29293;52.190;21.226;2023-12-20T03:33:05;10.90;;;5.90;;
43690;SDS011;29293;52.190;21.226;2023-12-20T03:48:12;9.80;;;6.20;;
43690;SDS011;29293;52.190;21.226;2023-12-20T04:03:18;9.60;;;5.60;;
43690;SDS011;29293;52.190;21.226;2023-12-20T04:18:25;8.30;;;5.50;;
43690;SDS011;29293;52.190;21.226;2023-12-20T04:33:32;9.50;;;6.10;;
43690;SDS011;29293;52.190;21.226;2023-12-20T04:48:39;10.50;;;6.30;;
43690;SDS011;29293;52.190;21.226;2023-12-20T05:03:46;13.00;;;7.50;;
43690;SDS011;29293;52.190;21.226;2023-12-20T05:18:53;9.50;;;7.30;;
43690;SDS011;29293;52.190;21.226;2023-12-20T05:33:59;12.20;;;8.90;;
43690;SDS011;29293;52.190;21.226;2023-12-20T05:49:06;14.40;;;10.20;;
43690;SDS011;29293;52.190;21.226;2023-12-20T06:04:14;19.30;;;12.30;;
43690;SDS011;29293;52.190;21.226;2023-12-20T06:19:22;17.30;;;11.90;;
43690;SDS011;29293;52.190;21.226;2023-12-20T06:34:29;16.40;;;11.60;;
43690;SDS011;29293;52.190;21.226;2023-12-20T06:49:36;14.70;;;11.40;;
43690;SDS011;29293;52.190;21.226;2023-12-20T07:04:43;14.20;;;10.00;;
43690;SDS011;29293;52.190;21.226;2023-12-20T07:19:50;15.50;;;10.60;;
43690;SDS011;29293;52.190;21.226;2023-12-20T07:34:57;17.50;;;11.60;;
43690;SDS011;29293;52.190;21.226;2023-12-20T07:50:06;15.70;;;12.00;;
43690;SDS011;29293;52.190;21.226;2023-12-20T08:05:14;18.70;;;12.30;;
43690;SDS011;29293;52.190;21.226;2023-12-20T08:20:20;13.70;;;8.70;;
43690;SDS011;29293;52.190;21.226;2023-12-20T08:35:28;14.10;;;9.60;;
43690;SDS011;29293;52.190;21.226;2023-12-20T08:50:35;11.90;;;8.90;;
43690;SDS011;29293;52.190;21.226;2023-12-20T09:05:43;11.70;;;8.60;;
43690;SDS011;29293;52.190;21.226;2023-12-20T09:20:51;11.70;;;8.70;;
43690;SDS011;29293;52.190;21.226;2023-12-20T09:35:58;12.00;;;8.40;;
43690;SDS011;29293;52.190;21.226;2023-12-20T09:51:05;12.30;;;8.60;;
43690;SDS011;29293;52.190;21.226;2023-12-20T10:06:14;14.50;;;8.80;;
43690;SDS011;29293;52.190;21.226;2023-12-20T10:21:22;13.80;;;8.40;;
43690;SDS011;29293;52.190;21.226;2023-12-20T10:36:30;14.20;;;8.90;;
43690;SDS011;29293;52.190;21.226;2023-12-20T10:51:40;10.00;;;6.90;;
43690;SDS011;29293;52.190;21.226;2023-12-20T11:06:47;10.20;;;7.00;;
43690;SDS011;29293;52.190;21.226;2023-12-20T11:21:58;9.40;;;7.10;;
43690;SDS011;29293;52.190;21.226;2023-12-20T11:37:05;12.50;;;8.20;;
43690;SDS011;29293;52.190;21.226;2023-12-20T11:52:13;10.20;;;6.60;;
43690;SDS011;29293;52.190;21.226;2023-12-20T12:07:20;10.00;;;6.40;;
43690;SDS011;29293;52.190;21.226;2023-12-20T12:22:27;8.90;;;5.20;;
43690;SDS011;29293;52.190;21.226;2023-12-20T12:37:35;9.00;;;6.40;;
43690;SDS011;29293;52.190;21.226;2023-12-20T12:52:44;10.00;;;6.80;;
43690;SDS011;29293;52.190;21.226;2023-12-20T13:07:51;9.90;;;6.20;;
43690;SDS011;29293;52.190;21.226;2023-12-20T13:22:58;15.30;;;9.00;;
43690;SDS011;29293;52.190;21.226;2023-12-20T13:38:05;15.30;;;10.10;;
43690;SDS011;29293;52.190;21.226;2023-12-20T13:53:12;15.30;;;10.20;;
43690;SDS011;29293;52.190;21.226;2023-12-20T14:08:19;12.40;;;8.60;;
43690;SDS011;29293;52.190;21.226;2023-12-20T14:23:27;15.30;;;9.80;;
43690;SDS011;29293;52.190;21.226;2023-12-20T14:38:36;12.30;;;8.40;;
43690;SDS011;29293;52.190;21.226;2023-12-20T14:53:43;13.10;;;9.50;;
43690;SDS011;29293;52.190;21.226;2023-12-20T15:08:50;16.60;;;8.70;;
43690;SDS011;29293;52.190;21.226;2023-12-20T15:23:58;12.40;;;7.90;;
43690;SDS011;29293;52.190;21.226;2023-12-20T15:39:17;12.40;;;7.30;;
43690;SDS011;29293;52.190;21.226;2023-12-20T15:54:24;13.20;;;7.00;;
43690;SDS011;29293;52.190;21.226;2023-12-20T16:09:31;11.00;;;6.90;;
43690;SDS011;29293;52.190;21.226;2023-12-20T16:24:38;12.80;;;6.30;;
43690;SDS011;29293;52.190;21.226;2023-12-20T16:39:47;11.30;;;6.50;;
43690;SDS011;29293;52.190;21.226;2023-12-20T16:54:53;13.60;;;6.40;;
43690;SDS011;29293;52.190;21.226;2023-12-20T17:10:00;13.80;;;6.90;;
43690;SDS011;29293;52.190;21.226;2023-12-20T17:25:08;16.90;;;6.90;;
43690;SDS011;29293;52.190;21.226;2023-12-20T17:40:15;12.70;;;6.40;;
43690;SDS011;29293;52.190;21.226;2023-12-20T18:07:29;13.10;;;5.50;;
43690;SDS011;29293;52.190;21.226;2023-12-20T18:22:39;10.60;;;5.80;;
43690;SDS011;29293;52.190;21.226;2023-12-20T18:37:46;8.20;;;4.50;;
43690;SDS011;29293;52.190;21.226;2023-12-20T18:52:53;9.20;;;5.20;;
43690;SDS011;29293;52.190;21.226;2023-12-20T19:08:00;10.90;;;5.60;;
43690;SDS011;29293;52.190;21.226;2023-12-20T19:23:07;10.80;;;5.20;;
43690;SDS011;29293;52.190;21.226;2023-12-20T19:38:15;5.10;;;2.30;;
43690;SDS011;29293;52.190;21.226;2023-12-20T19:53:22;3.60;;;1.50;;
43690;SDS011;29293;52.190;21.226;2023-12-20T20:23:36;4.90;;;1.80;;
43690;SDS011;29293;52.190;21.226;2023-12-20T20:38:50;6.00;;;2.20;;
43690;SDS011;29293;52.190;21.226;2023-12-20T20:54:25;4.00;;;2.30;;
43690;SDS011;29293;52.190;21.226;2023-12-20T21:09:44;6.90;;;4.30;;
43690;SDS011;29293;52.190;21.226;2023-12-20T21:45:28;13.50;;;6.20;;
43690;SDS011;29293;52.190;21.226;2023-12-20T22:00:31;10.30;;;4.10;;
43690;SDS011;29293;52.190;21.226;2023-12-20T22:15:35;12.30;;;5.80;;
43690;SDS011;29293;52.190;21.226;2023-12-20T22:30:39;10.50;;;4.70;;
43690;SDS011;29293;52.190;21.226;2023-12-20T22:45:43;13.70;;;4.50;;
43690;SDS011;29293;52.190;21.226;2023-12-20T23:00:47;7.80;;;3.90;;
43690;SDS011;29293;52.190;21.226;2023-12-20T23:15:51;8.00;;;3.50;;
43690;SDS011;29293;52.190;21.226;2023-12-20T23:30:55;13.10;;;4.20;;
43690;SDS011;29293;52.190;21.226;2023-12-20T23:45:58;14.80;;;5.00;;
